Joseph, Oregon
Current Conditions -  °F | °C
As of 6:15 AM on Sunday 21 Dec 2014 (Local Time) from KLGD Reporting Station
Overcast Overcast  
Wind Chill: 40°   Ceiling: 5000
Heat Index: 48°   Visibility: 10mi
Dew Point: 36°   Wind: 24mph
Humidity: 62%   Direction: 300°WNW
Pressure: 29.78"   Gusts: 38mph
Location:  45.35°N, 117.23°W
Report Text: KLGD 211415Z AUTO 30021G33KT 10SM FEW037 BKN050 OVC080 09/02 A2978 RMK AO1
Loading
Personal Weather Stations






























Interactive Weather Map New forecast layout! Learn more

10-Day Weather Forecast

Advertisements
Track Severe Weather on mobile